createdAt,value
2023-01-20T00:01:07.151Z,98082.28
2023-01-20T00:03:36.482Z,98084.41
2023-01-20T00:06:04.649Z,98083.13
2023-01-20T00:08:32.543Z,98085.31
2023-01-20T00:11:00.625Z,98096.25
2023-01-20T00:13:28.550Z,98086.38
2023-01-20T00:15:56.402Z,98094.25
2023-01-20T00:18:24.281Z,98095.94
2023-01-20T00:20:53.456Z,98093.75
2023-01-20T00:23:23.518Z,98094.81
2023-01-20T00:25:51.313Z,98101.72
2023-01-20T00:28:19.150Z,98100.41
2023-01-20T00:30:47.073Z,98112.81
2023-01-20T00:33:14.885Z,98111.41
2023-01-20T00:35:42.780Z,98120.44
2023-01-20T00:38:12.007Z,98113.13
2023-01-20T00:40:39.891Z,98119.88
2023-01-20T00:43:07.732Z,98120.50
2023-01-20T00:45:35.682Z,98119.47
2023-01-20T00:48:03.540Z,98123.81
2023-01-20T00:50:31.399Z,98130.72
2023-01-20T00:53:01.337Z,98125.53
2023-01-20T00:55:30.652Z,98126.19
2023-01-20T00:57:58.523Z,98125.06
2023-01-20T01:00:26.501Z,98125.22
2023-01-20T01:02:56.307Z,98129.59
2023-01-20T01:05:24.398Z,98132.59
2023-01-20T01:07:52.202Z,98140.28
2023-01-20T01:10:20.180Z,98132.75
2023-01-20T01:12:49.497Z,98144.72
2023-01-20T01:15:17.649Z,98142.97
2023-01-20T01:17:45.657Z,98151.91
2023-01-20T01:20:14.714Z,98156.72
2023-01-20T01:22:42.593Z,98154.66
2023-01-20T01:25:10.684Z,98158.63
2023-01-20T01:27:38.583Z,98162.47
2023-01-20T01:30:09.301Z,98171.75
2023-01-20T01:32:37.207Z,98173.84
2023-01-20T01:35:05.541Z,98171.38
2023-01-20T01:37:33.377Z,98176.25
2023-01-20T01:40:01.294Z,98174.88
2023-01-20T01:42:29.537Z,98177.94
2023-01-20T01:45:21.683Z,98178.84
2023-01-20T01:47:54.126Z,98175.63
2023-01-20T01:50:25.156Z,98186.41
2023-01-20T01:52:55.148Z,98178.53
2023-01-20T01:55:27.489Z,98180.84
2023-01-20T01:57:57.150Z,98180.44
2023-01-20T02:00:26.527Z,98182.72
2023-01-20T02:02:56.830Z,98178.03
2023-01-20T02:05:26.014Z,98178.84
2023-01-20T02:07:54.273Z,98184.78
2023-01-20T02:10:22.107Z,98186.34
2023-01-20T02:12:52.838Z,98187.06
2023-01-20T02:15:28.337Z,98192.72
2023-01-20T02:18:13.647Z,98198.31
2023-01-20T02:21:22.884Z,98196.00
2023-01-20T02:24:44.468Z,98203.69
2023-01-20T02:27:15.817Z,98196.84
2023-01-20T02:30:09.447Z,98200.28
2023-01-20T02:32:56.335Z,98205.13
2023-01-20T02:35:30.649Z,98201.88
2023-01-20T02:38:09.195Z,98207.03
2023-01-20T02:40:47.466Z,98205.03
2023-01-20T02:43:22.592Z,98204.38
2023-01-20T02:45:56.197Z,98210.47
2023-01-20T02:48:30.171Z,98208.75
2023-01-20T02:51:04.655Z,98214.72
2023-01-20T02:53:39.265Z,98209.78
2023-01-20T02:56:09.454Z,98216.63
2023-01-20T02:58:43.532Z,98211.91
2023-01-20T03:01:14.765Z,98213.31
2023-01-20T03:03:47.639Z,98212.25
2023-01-20T03:06:20.499Z,98222.97
2023-01-20T03:08:51.901Z,98219.50
2023-01-20T03:11:22.540Z,98217.47
2023-01-20T03:13:54.029Z,98223.59
2023-01-20T03:16:24.238Z,98226.22
2023-01-20T03:18:53.673Z,98228.38
2023-01-20T03:21:24.296Z,98232.75
2023-01-20T03:23:54.141Z,98232.25
2023-01-20T03:26:23.848Z,98233.88
2023-01-20T03:28:52.062Z,98231.84
2023-01-20T03:31:23.604Z,98234.09
2023-01-20T03:33:55.624Z,98243.25
2023-01-20T03:36:25.951Z,98242.53
2023-01-20T03:38:55.684Z,98237.53
2023-01-20T03:41:31.299Z,98245.13
2023-01-20T03:44:10.753Z,98249.31
2023-01-20T03:46:47.228Z,98255.50
2023-01-20T03:49:24.609Z,98254.53
2023-01-20T03:52:00.222Z,98258.97
2023-01-20T03:54:35.906Z,98263.53
2023-01-20T03:57:09.317Z,98263.53
2023-01-20T03:59:41.278Z,98266.00
2023-01-20T04:02:10.582Z,98258.84
2023-01-20T04:04:45.296Z,98261.44
2023-01-20T04:07:17.884Z,98265.84
2023-01-20T04:09:50.182Z,98263.25
2023-01-20T04:12:18.077Z,98268.88
2023-01-20T04:14:45.879Z,98262.25
2023-01-20T04:17:14.593Z,98266.97
2023-01-20T04:19:43.797Z,98272.81
2023-01-20T04:22:18.757Z,98278.41
2023-01-20T04:24:54.140Z,98275.81
2023-01-20T04:27:22.029Z,98282.50
2023-01-20T04:29:49.828Z,98281.41
2023-01-20T04:32:17.707Z,98283.13
2023-01-20T04:34:46.967Z,98282.22
2023-01-20T04:37:14.729Z,98283.56
2023-01-20T04:39:42.622Z,98290.81
2023-01-20T04:42:11.013Z,98297.78
2023-01-20T04:44:39.007Z,98298.63
2023-01-20T04:47:06.916Z,98304.38
2023-01-20T04:49:35.483Z,98302.16
2023-01-20T04:52:05.030Z,98305.25
2023-01-20T04:54:32.981Z,98317.03
2023-01-20T04:57:00.813Z,98323.69
2023-01-20T04:59:28.723Z,98327.56
2023-01-20T05:01:56.543Z,98328.22
2023-01-20T05:04:24.373Z,98324.19
2023-01-20T05:06:52.169Z,98334.91
2023-01-20T05:09:23.653Z,98335.13
2023-01-20T05:11:53.501Z,98344.38
2023-01-20T05:14:21.282Z,98342.63
2023-01-20T05:16:49.183Z,98346.03
2023-01-20T05:19:17.061Z,98342.00
2023-01-20T05:21:44.906Z,98353.28
2023-01-20T05:24:12.934Z,98349.19
2023-01-20T05:26:44.115Z,98353.63
2023-01-20T05:29:11.941Z,98360.44
2023-01-20T05:31:43.409Z,98364.28
2023-01-20T05:34:12.061Z,98367.06
2023-01-20T05:36:39.851Z,98366.63
2023-01-20T05:39:07.660Z,98370.25
2023-01-20T05:41:35.490Z,98376.75
2023-01-20T05:44:04.667Z,98370.16
2023-01-20T05:46:32.493Z,98380.56
2023-01-20T05:49:00.316Z,98377.03
2023-01-20T05:51:28.717Z,98372.66
2023-01-20T05:53:56.522Z,98378.13
2023-01-20T05:56:24.410Z,98376.50
2023-01-20T05:58:55.308Z,98389.41
2023-01-20T06:01:24.550Z,98389.84
2023-01-20T06:03:52.549Z,98397.22
2023-01-20T06:06:20.488Z,98395.47
2023-01-20T06:08:49.613Z,98389.09
2023-01-20T06:11:20.682Z,98399.06
2023-01-20T06:13:49.109Z,98399.31
2023-01-20T06:16:18.452Z,98401.91
2023-01-20T06:18:47.666Z,98398.66
2023-01-20T06:21:15.570Z,98407.78
2023-01-20T06:23:43.347Z,98404.34
2023-01-20T06:26:13.241Z,98402.72
2023-01-20T06:28:41.192Z,98412.38
2023-01-20T06:31:11.265Z,98410.84
2023-01-20T06:33:39.257Z,98421.94
2023-01-20T06:36:10.936Z,98421.13
2023-01-20T06:38:38.723Z,98419.47
2023-01-20T06:41:10.454Z,98427.28
2023-01-20T06:43:40.200Z,98430.38
2023-01-20T06:46:11.104Z,98440.25
2023-01-20T06:48:39.338Z,98435.50
2023-01-20T06:51:10.646Z,98446.78
2023-01-20T06:53:38.764Z,98451.09
2023-01-20T06:56:07.661Z,98448.41
2023-01-20T06:58:35.476Z,98457.16
2023-01-20T07:01:08.775Z,98464.16
2023-01-20T07:03:36.873Z,98466.75
2023-01-20T07:06:16.702Z,98470.94
2023-01-20T07:08:45.735Z,98471.13
2023-01-20T07:11:13.819Z,98473.53
2023-01-20T07:13:41.717Z,98476.25
2023-01-20T07:16:11.560Z,98486.75
2023-01-20T07:18:41.079Z,98488.06
2023-01-20T07:21:11.386Z,98492.81
2023-01-20T07:23:39.207Z,98495.94
2023-01-20T07:26:09.158Z,98496.97
2023-01-20T07:28:37.568Z,98504.31
2023-01-20T07:31:06.197Z,98506.84
2023-01-20T07:33:34.730Z,98509.88
2023-01-20T07:36:03.015Z,98514.47
2023-01-20T07:38:32.176Z,98518.88
2023-01-20T07:41:05.110Z,98522.84
2023-01-20T07:43:34.230Z,98526.03
2023-01-20T07:46:04.714Z,98526.59
2023-01-20T07:48:34.382Z,98533.25
2023-01-20T07:51:06.541Z,98535.59
2023-01-20T07:53:37.536Z,98542.72
2023-01-20T07:56:07.130Z,98537.03
2023-01-20T07:58:35.543Z,98542.50
2023-01-20T08:01:11.196Z,98546.56
2023-01-20T08:03:39.416Z,98543.97
2023-01-20T08:06:08.774Z,98542.78
2023-01-20T08:08:38.282Z,98560.75
2023-01-20T08:11:08.200Z,98556.25
2023-01-20T08:13:36.072Z,98558.97
2023-01-20T08:16:05.368Z,98553.25
2023-01-20T08:18:34.028Z,98564.44
2023-01-20T08:21:06.338Z,98568.38
2023-01-20T08:23:34.546Z,98572.47
2023-01-20T08:26:06.681Z,98568.63
2023-01-20T08:28:36.432Z,98572.41
2023-01-20T08:31:06.337Z,98576.72
2023-01-20T08:33:34.391Z,98581.66
2023-01-20T08:36:08.109Z,98579.84
2023-01-20T08:38:36.556Z,98583.31
2023-01-20T08:41:09.835Z,98584.69
2023-01-20T08:43:37.795Z,98589.13
2023-01-20T08:46:08.262Z,98589.44
2023-01-20T08:48:36.441Z,98583.81
2023-01-20T08:51:05.518Z,98599.53
2023-01-20T08:53:33.411Z,98603.84
2023-01-20T08:56:02.901Z,98608.81
2023-01-20T08:58:32.309Z,98609.06
2023-01-20T09:01:00.843Z,98610.28
2023-01-20T09:03:28.683Z,98617.81
2023-01-20T09:05:59.320Z,98621.00
2023-01-20T09:08:27.325Z,98624.06
2023-01-20T09:10:57.490Z,98630.28
2023-01-20T09:13:25.250Z,98629.84
2023-01-20T09:15:54.743Z,98625.44
2023-01-20T09:18:22.626Z,98630.19
2023-01-20T09:20:50.489Z,98625.53
2023-01-20T09:23:18.440Z,98631.56
2023-01-20T09:25:46.312Z,98644.56
2023-01-20T09:28:14.363Z,98632.16
2023-01-20T09:30:42.748Z,98637.09
2023-01-20T09:33:13.028Z,98640.28
2023-01-20T09:35:41.127Z,98647.13
2023-01-20T09:38:27.638Z,98644.81
2023-01-20T09:41:28.793Z,98644.38
2023-01-20T09:44:04.290Z,98643.53
2023-01-20T09:47:07.040Z,98651.94
2023-01-20T09:50:03.767Z,98650.25
2023-01-20T09:52:54.569Z,98653.88
2023-01-20T09:55:28.252Z,98663.00
2023-01-20T09:58:02.764Z,98664.81
2023-01-20T10:00:34.774Z,98655.81
2023-01-20T10:03:08.312Z,98662.84
2023-01-20T10:05:40.715Z,98662.50
2023-01-20T10:08:17.079Z,98661.53
2023-01-20T10:10:50.857Z,98660.47
2023-01-20T10:13:24.214Z,98661.44
2023-01-20T10:15:55.763Z,98664.84
2023-01-20T10:18:29.184Z,98660.63
2023-01-20T10:21:02.735Z,98662.56
2023-01-20T10:23:40.857Z,98669.28
2023-01-20T10:26:14.300Z,98663.25
2023-01-20T10:28:53.733Z,98664.97
2023-01-20T10:31:26.463Z,98669.56
2023-01-20T10:33:56.857Z,98664.06
2023-01-20T10:36:29.825Z,98666.97
2023-01-20T10:39:02.914Z,98665.06
2023-01-20T10:41:40.278Z,98664.25
2023-01-20T10:44:13.265Z,98665.34
2023-01-20T10:46:59.660Z,98661.16
2023-01-20T10:49:59.254Z,98656.78
2023-01-20T10:52:42.958Z,98658.84
2023-01-20T10:55:25.854Z,98655.41
2023-01-20T10:57:58.641Z,98660.84
2023-01-20T11:00:29.822Z,98658.34
2023-01-20T11:03:01.179Z,98658.38
2023-01-20T11:05:31.274Z,98662.31
2023-01-20T11:08:02.601Z,98655.06
2023-01-20T11:10:33.799Z,98662.19
2023-01-20T11:13:03.277Z,98669.09
2023-01-20T11:15:35.118Z,98666.16
2023-01-20T11:18:28.901Z,98667.44
2023-01-20T11:21:00.867Z,98667.59
2023-01-20T11:23:37.649Z,98665.53
2023-01-20T11:26:18.603Z,98677.41
2023-01-20T11:28:51.597Z,98676.22
2023-01-20T11:31:20.683Z,98678.66
2023-01-20T11:34:00.350Z,98682.31
2023-01-20T11:36:29.096Z,98673.44
2023-01-20T11:38:58.672Z,98672.34
2023-01-20T11:41:28.173Z,98674.78
2023-01-20T11:43:57.579Z,98678.47
2023-01-20T11:46:29.091Z,98680.16
2023-01-20T11:49:24.149Z,98682.75
2023-01-20T11:51:55.166Z,98670.28
2023-01-20T11:54:26.827Z,98680.22
2023-01-20T11:56:57.599Z,98674.97
2023-01-20T11:59:29.114Z,98671.78
2023-01-20T12:02:01.695Z,98670.34
2023-01-20T12:05:07.258Z,98677.91
2023-01-20T12:07:38.687Z,98685.81
2023-01-20T12:10:18.561Z,98680.06
2023-01-20T12:12:52.321Z,98680.81
2023-01-20T12:15:23.436Z,98672.47
2023-01-20T12:17:57.763Z,98675.84
2023-01-20T12:20:31.941Z,98676.63
2023-01-20T12:23:21.076Z,98681.78
2023-01-20T12:25:56.876Z,98687.72
2023-01-20T12:28:32.241Z,98681.81
2023-01-20T12:31:01.816Z,98685.78
2023-01-20T12:33:33.765Z,98696.16
2023-01-20T12:36:26.083Z,98702.91
2023-01-20T12:39:14.936Z,98693.38
2023-01-20T12:42:03.043Z,98697.75
2023-01-20T12:44:37.008Z,98697.00
2023-01-20T12:47:15.861Z,98691.34
2023-01-20T12:50:00.910Z,98698.56
2023-01-20T12:52:44.948Z,98707.75
2023-01-20T12:55:36.409Z,98702.59
2023-01-20T12:58:25.192Z,98708.53
2023-01-20T13:01:18.077Z,98697.88
2023-01-20T13:04:10.467Z,98704.72
2023-01-20T13:07:05.448Z,98699.66
2023-01-20T13:09:43.453Z,98705.31
2023-01-20T13:12:26.104Z,98708.53
2023-01-20T13:15:00.022Z,98710.00
2023-01-20T13:17:37.667Z,98702.84
2023-01-20T13:20:06.397Z,98701.47
2023-01-20T13:22:38.027Z,98710.84
2023-01-20T13:25:08.075Z,98712.91
2023-01-20T13:27:39.170Z,98711.00
2023-01-20T13:30:29.980Z,98714.94
2023-01-20T13:33:05.927Z,98707.16
2023-01-20T13:35:45.033Z,98709.47
2023-01-20T13:38:22.264Z,98706.94
2023-01-20T13:40:52.952Z,98713.47
2023-01-20T13:43:50.744Z,98720.34
2023-01-20T13:46:48.444Z,98723.63
2023-01-20T13:49:44.316Z,98721.59
2023-01-20T13:52:12.830Z,98717.56
2023-01-20T13:54:48.985Z,98718.41
2023-01-20T13:57:46.707Z,98717.47
2023-01-20T14:00:16.524Z,98720.28
2023-01-20T14:02:47.163Z,98728.28
2023-01-20T14:05:30.878Z,98730.50
2023-01-20T14:07:59.644Z,98732.13
2023-01-20T14:10:28.202Z,98732.22
2023-01-20T14:12:56.043Z,98735.81
2023-01-20T14:15:32.082Z,98728.97
2023-01-20T14:18:02.005Z,98729.50
2023-01-20T14:20:30.869Z,98737.38
2023-01-20T14:23:28.579Z,98735.69
2023-01-20T14:26:06.197Z,98734.88
2023-01-20T14:28:35.516Z,98734.72
2023-01-20T14:31:13.763Z,98734.50
2023-01-20T14:33:48.623Z,98742.59
2023-01-20T14:36:18.941Z,98738.72
2023-01-20T14:38:57.312Z,98744.75
2023-01-20T14:41:31.526Z,98741.97
2023-01-20T14:44:00.207Z,98748.44
2023-01-20T14:46:29.776Z,98740.31
2023-01-20T14:48:59.887Z,98750.69
2023-01-20T14:51:28.375Z,98750.16
2023-01-20T14:54:31.016Z,98746.91
2023-01-20T14:57:21.333Z,98756.47
2023-01-20T15:00:00.227Z,98756.34
2023-01-20T15:02:32.017Z,98767.03
2023-01-20T15:05:01.333Z,98763.56
2023-01-20T15:07:29.266Z,98765.09
2023-01-20T15:10:03.003Z,98765.03
2023-01-20T15:12:42.575Z,98769.19
2023-01-20T15:15:15.631Z,98766.44
2023-01-20T15:18:18.159Z,98770.69
2023-01-20T15:20:49.916Z,98766.63
2023-01-20T15:23:21.622Z,98775.75
2023-01-20T15:25:50.839Z,98779.81
2023-01-20T15:28:24.928Z,98778.34
2023-01-20T15:30:54.121Z,98774.25
2023-01-20T15:33:24.227Z,98777.31
2023-01-20T15:35:55.346Z,98772.19
2023-01-20T15:38:23.309Z,98781.38
2023-01-20T15:40:51.233Z,98784.72
2023-01-20T15:43:19.473Z,98789.09
2023-01-20T15:45:47.703Z,98781.78
2023-01-20T15:48:18.216Z,98785.03
2023-01-20T15:50:46.751Z,98786.00
2023-01-20T15:53:16.106Z,98795.03
2023-01-20T15:55:48.665Z,98790.50
2023-01-20T15:58:24.808Z,98790.06
2023-01-20T16:00:53.640Z,98794.06
2023-01-20T16:03:21.647Z,98798.47
2023-01-20T16:05:50.543Z,98803.19
2023-01-20T16:08:22.072Z,98804.34
2023-01-20T16:10:50.411Z,98810.50
2023-01-20T16:13:18.205Z,98805.16
2023-01-20T16:15:46.186Z,98817.56
2023-01-20T16:18:16.254Z,98821.66
2023-01-20T16:20:45.772Z,98831.19
2023-01-20T16:23:14.448Z,98824.47
2023-01-20T16:25:43.953Z,98830.59
2023-01-20T16:28:15.124Z,98828.53
2023-01-20T16:30:45.658Z,98835.06
2023-01-20T16:33:17.983Z,98834.19
2023-01-20T16:35:45.865Z,98835.31
2023-01-20T16:38:15.521Z,98833.13
2023-01-20T16:40:49.111Z,98833.50
2023-01-20T16:43:17.920Z,98838.78
2023-01-20T16:45:50.511Z,98845.50
2023-01-20T16:48:18.408Z,98845.41
2023-01-20T16:50:46.328Z,98841.34
2023-01-20T16:53:15.356Z,98846.78
2023-01-20T16:55:45.071Z,98854.59
2023-01-20T16:58:14.962Z,98855.91
2023-01-20T17:00:43.115Z,98855.25
2023-01-20T17:03:10.994Z,98856.19
2023-01-20T17:05:38.974Z,98860.34
2023-01-20T17:08:06.956Z,98861.97
2023-01-20T17:10:34.869Z,98865.81
2023-01-20T17:13:02.738Z,98872.38
2023-01-20T17:15:32.075Z,98873.84
2023-01-20T17:18:00.372Z,98878.69
2023-01-20T17:20:30.850Z,98867.19
2023-01-20T17:22:58.706Z,98877.63
2023-01-20T17:25:26.805Z,98882.75
2023-01-20T17:27:54.820Z,98879.16
2023-01-20T17:30:25.304Z,98884.09
2023-01-20T17:32:55.517Z,98885.16
2023-01-20T17:35:23.422Z,98889.56
2023-01-20T17:37:51.298Z,98889.22
2023-01-20T17:40:19.521Z,98898.91
2023-01-20T17:42:47.416Z,98888.63
2023-01-20T17:45:17.646Z,98887.13
2023-01-20T17:47:45.502Z,98892.13
2023-01-20T17:50:15.656Z,98888.41
2023-01-20T17:52:43.648Z,98896.63
2023-01-20T17:55:11.708Z,98892.78
2023-01-20T17:57:39.632Z,98900.53
2023-01-20T18:00:11.058Z,98894.16
2023-01-20T18:02:39.068Z,98902.72
2023-01-20T18:05:07.561Z,98903.44
2023-01-20T18:07:36.857Z,98901.28
2023-01-20T18:10:05.116Z,98909.75
2023-01-20T18:12:33.108Z,98914.63
2023-01-20T18:15:01.362Z,98911.41
2023-01-20T18:17:34.423Z,98916.44
2023-01-20T18:20:02.442Z,98907.94
2023-01-20T18:22:30.302Z,98913.16
2023-01-20T18:24:59.460Z,98914.72
2023-01-20T18:27:27.262Z,98917.53
2023-01-20T18:29:55.043Z,98911.91
2023-01-20T18:32:22.860Z,98915.81
2023-01-20T18:34:50.742Z,98914.34
2023-01-20T18:37:18.574Z,98916.06
2023-01-20T18:39:46.445Z,98923.16
2023-01-20T18:42:16.127Z,98920.16
2023-01-20T18:44:44.837Z,98920.41
2023-01-20T18:47:13.012Z,98927.69
2023-01-20T18:49:41.004Z,98923.66
2023-01-20T18:52:09.730Z,98928.75
2023-01-20T18:54:39.151Z,98922.59
2023-01-20T18:57:09.120Z,98931.91
2023-01-20T18:59:39.253Z,98932.91
2023-01-20T19:02:08.126Z,98935.41
2023-01-20T19:04:36.656Z,98937.78
2023-01-20T19:07:05.954Z,98929.25
2023-01-20T19:09:33.850Z,98946.69
2023-01-20T19:12:01.782Z,98945.28
2023-01-20T19:14:29.639Z,98939.75
2023-01-20T19:16:58.867Z,98941.91
2023-01-20T19:19:26.651Z,98941.94
2023-01-20T19:21:54.464Z,98941.03
2023-01-20T19:24:28.922Z,98948.94
2023-01-20T19:26:58.008Z,98949.47
2023-01-20T19:29:28.338Z,98948.56
2023-01-20T19:31:58.471Z,98944.78
2023-01-20T19:34:26.953Z,98946.56
2023-01-20T19:36:54.791Z,98947.13
2023-01-20T19:39:25.673Z,98947.53
2023-01-20T19:41:54.100Z,98943.91
2023-01-20T19:44:21.913Z,98946.53
2023-01-20T19:46:49.763Z,98943.41
2023-01-20T19:49:19.143Z,98951.47
2023-01-20T19:51:46.988Z,98953.91
2023-01-20T19:54:15.222Z,98946.53
2023-01-20T19:56:43.075Z,98951.47
2023-01-20T19:59:13.385Z,98952.97
2023-01-20T20:01:41.469Z,98960.16
2023-01-20T20:04:12.798Z,98952.25
2023-01-20T20:06:47.952Z,98952.97
2023-01-20T20:09:18.108Z,98957.16
2023-01-20T20:11:46.341Z,98949.56
2023-01-20T20:14:16.654Z,98956.13
2023-01-20T20:16:44.682Z,98959.34
2023-01-20T20:19:16.274Z,98957.13
2023-01-20T20:21:46.561Z,98962.66
2023-01-20T20:24:16.131Z,98963.34
2023-01-20T20:26:46.129Z,98968.59
2023-01-20T20:29:16.380Z,98961.44
2023-01-20T20:31:44.279Z,98963.19
2023-01-20T20:34:14.283Z,98970.75
2023-01-20T20:36:42.562Z,98963.94
2023-01-20T20:39:14.958Z,98970.81
2023-01-20T20:41:45.509Z,98970.91
2023-01-20T20:44:13.426Z,98969.94
2023-01-20T20:46:41.375Z,98975.31
2023-01-20T20:49:13.804Z,98972.47
2023-01-20T20:51:41.727Z,98970.38
2023-01-20T20:54:12.027Z,98966.59
2023-01-20T20:56:41.212Z,98973.44
2023-01-20T20:59:10.410Z,98975.34
2023-01-20T21:01:38.401Z,98981.41
2023-01-20T21:04:06.529Z,98975.50
2023-01-20T21:06:34.820Z,98980.13
2023-01-20T21:09:02.636Z,98974.03
2023-01-20T21:11:30.646Z,98978.19
2023-01-20T21:14:00.180Z,98981.34
2023-01-20T21:16:28.281Z,98988.59
2023-01-20T21:18:59.384Z,98997.44
2023-01-20T21:21:28.908Z,98991.53
2023-01-20T21:23:58.369Z,98994.69
2023-01-20T21:26:30.263Z,98987.72
2023-01-20T21:29:01.964Z,98998.91
2023-01-20T21:31:31.353Z,98998.84
2023-01-20T21:34:00.300Z,98998.84
2023-01-20T21:36:29.541Z,98996.22
2023-01-20T21:38:57.443Z,99003.69
2023-01-20T21:41:25.448Z,99002.06
2023-01-20T21:44:10.647Z,99011.00
2023-01-20T21:46:40.941Z,99006.25
2023-01-20T21:49:27.161Z,99014.22
2023-01-20T21:52:12.965Z,99017.59
2023-01-20T21:54:41.354Z,99017.34
2023-01-20T21:57:09.959Z,99005.94
2023-01-20T21:59:38.129Z,99008.81
2023-01-20T22:02:08.170Z,99009.84
2023-01-20T22:04:36.083Z,99006.63
2023-01-20T22:07:03.927Z,99017.34
2023-01-20T22:09:31.765Z,99015.91
2023-01-20T22:11:59.634Z,99025.13
2023-01-20T22:14:27.525Z,99029.81
2023-01-20T22:16:55.358Z,99025.75
2023-01-20T22:19:24.554Z,99030.78
2023-01-20T22:21:52.444Z,99029.16
2023-01-20T22:24:20.369Z,99038.59
2023-01-20T22:26:48.728Z,99039.38
2023-01-20T22:29:17.644Z,99039.66
2023-01-20T22:31:45.706Z,99036.88
2023-01-20T22:34:16.232Z,99042.66
2023-01-20T22:36:48.496Z,99034.88
2023-01-20T22:39:16.772Z,99042.50
2023-01-20T22:41:44.772Z,99045.81
2023-01-20T22:44:12.626Z,99046.56
2023-01-20T22:46:40.806Z,99039.38
2023-01-20T22:49:08.625Z,99045.50
2023-01-20T22:51:36.675Z,99047.63
2023-01-20T22:54:07.091Z,99050.31
2023-01-20T22:56:34.951Z,99053.56
2023-01-20T22:59:02.849Z,99054.13
2023-01-20T23:01:32.678Z,99048.41
2023-01-20T23:04:02.033Z,99046.16
2023-01-20T23:06:32.621Z,99053.75
2023-01-20T23:09:06.233Z,99055.88
2023-01-20T23:11:36.490Z,99064.31
2023-01-20T23:14:04.984Z,99063.16
2023-01-20T23:16:32.836Z,99054.78
2023-01-20T23:19:00.740Z,99062.13
2023-01-20T23:21:28.917Z,99060.72
2023-01-20T23:23:56.802Z,99061.59
2023-01-20T23:26:28.377Z,99058.75
2023-01-20T23:28:58.644Z,99054.09
2023-01-20T23:31:28.695Z,99060.13
2023-01-20T23:33:56.582Z,99051.16
2023-01-20T23:36:27.019Z,99061.41
2023-01-20T23:38:55.920Z,99063.06
2023-01-20T23:41:24.847Z,99071.66
2023-01-20T23:43:54.179Z,99067.09
2023-01-20T23:46:27.074Z,99074.97
2023-01-20T23:48:54.839Z,99070.53
2023-01-20T23:51:25.819Z,99080.03
2023-01-20T23:53:53.753Z,99075.69
2023-01-20T23:56:23.702Z,99072.59
2023-01-20T23:58:52.066Z,99087.03
